QTR101 OMDB-OTHH
Flight info
| Callsign | QTR101 |
|---|---|
| Flight time | 0h 37m |
| Altitude | 26000 |
| Route | NABIX P699 OXARI M430 TOSNA |
| Aircraft | A346/H-SDE2E3FGHIJ3J4J5M1RWXY/LB1D1 |
Departure
| Time | 2026-05-06 17:57 |
|---|---|
| Airport | Dubai International Airport (OMDB) |
Arrival
| Time | 2026-05-06 18:34 |
|---|---|
| Airport | Hamad International Airport (OTHH) |
| Time | Latitude | Longitude | Altitude | Speed | Heading |
|---|---|---|---|---|---|
| 2026-05-06 17:31 | 25.25975 | 55.34356 | 30 ft | 0 kts | 211° |
| 2026-05-06 17:43 | 25.25983 | 55.34362 | 30 ft | 4 kts | 209° |
| 2026-05-06 17:43 | 25.26008 | 55.34375 | 28 ft | 4 kts | 204° |
| 2026-05-06 17:43 | 25.26031 | 55.34389 | 28 ft | 4 kts | 212° |
| 2026-05-06 17:44 | 25.26046 | 55.34403 | 27 ft | 4 kts | 245° |
| 2026-05-06 17:44 | 25.26048 | 55.34417 | 28 ft | 4 kts | 289° |
| 2026-05-06 17:44 | 25.26039 | 55.34436 | 27 ft | 4 kts | 301° |
| 2026-05-06 17:44 | 25.26025 | 55.34461 | 28 ft | 3 kts | 301° |
| 2026-05-06 17:45 | 25.26022 | 55.34464 | 28 ft | 0 kts | 301° |
| 2026-05-06 17:45 | 25.26023 | 55.34465 | 28 ft | 0 kts | 301° |
| 2026-05-06 17:47 | 25.26026 | 55.34459 | 28 ft | 2 kts | 302° |
| 2026-05-06 17:48 | 25.26042 | 55.34430 | 26 ft | 7 kts | 302° |
| 2026-05-06 17:48 | 25.26079 | 55.34364 | 30 ft | 12 kts | 302° |
| 2026-05-06 17:48 | 25.26131 | 55.34273 | 30 ft | 16 kts | 302° |
| 2026-05-06 17:48 | 25.26184 | 55.34178 | 30 ft | 6 kts | 302° |
| 2026-05-06 17:49 | 25.26218 | 55.34128 | 30 ft | 9 kts | 322° |
| 2026-05-06 17:49 | 25.26278 | 55.34143 | 30 ft | 8 kts | 71° |
| 2026-05-06 17:49 | 25.26261 | 55.34224 | 30 ft | 13 kts | 120° |
| 2026-05-06 17:49 | 25.26209 | 55.34318 | 30 ft | 16 kts | 122° |
| 2026-05-06 17:50 | 25.26143 | 55.34435 | 30 ft | 20 kts | 122° |
| 2026-05-06 17:50 | 25.26076 | 55.34568 | 30 ft | 16 kts | 100° |
| 2026-05-06 17:50 | 25.26129 | 55.34677 | 30 ft | 18 kts | 47° |
| 2026-05-06 17:50 | 25.26227 | 55.34778 | 30 ft | 21 kts | 33° |
| 2026-05-06 17:51 | 25.26343 | 55.34875 | 31 ft | 21 kts | 68° |
| 2026-05-06 17:51 | 25.26328 | 55.34953 | 32 ft | 15 kts | 120° |
| 2026-05-06 17:51 | 25.26265 | 55.35065 | 31 ft | 19 kts | 122° |
| 2026-05-06 17:51 | 25.26188 | 55.35199 | 31 ft | 22 kts | 122° |
| 2026-05-06 17:52 | 25.26103 | 55.35353 | 30 ft | 25 kts | 121° |
| 2026-05-06 17:52 | 25.26007 | 55.35525 | 30 ft | 27 kts | 122° |
| 2026-05-06 17:52 | 25.25902 | 55.35710 | 30 ft | 29 kts | 122° |
| 2026-05-06 17:52 | 25.25792 | 55.35903 | 31 ft | 30 kts | 122° |
| 2026-05-06 17:53 | 25.25680 | 55.36105 | 31 ft | 31 kts | 122° |
| 2026-05-06 17:53 | 25.25562 | 55.36315 | 31 ft | 32 kts | 122° |
| 2026-05-06 17:53 | 25.25446 | 55.36521 | 31 ft | 21 kts | 122° |
| 2026-05-06 17:53 | 25.25365 | 55.36666 | 30 ft | 24 kts | 122° |
| 2026-05-06 17:54 | 25.25274 | 55.36829 | 30 ft | 26 kts | 122° |
| 2026-05-06 17:54 | 25.25175 | 55.37004 | 31 ft | 28 kts | 122° |
| 2026-05-06 17:54 | 25.25071 | 55.37188 | 32 ft | 29 kts | 122° |
| 2026-05-06 17:54 | 25.24962 | 55.37383 | 32 ft | 30 kts | 122° |
| 2026-05-06 17:55 | 25.24861 | 55.37562 | 31 ft | 25 kts | 122° |
| 2026-05-06 17:55 | 25.24769 | 55.37725 | 31 ft | 16 kts | 122° |
| 2026-05-06 17:55 | 25.24705 | 55.37838 | 31 ft | 19 kts | 122° |
| 2026-05-06 17:55 | 25.24671 | 55.37942 | 31 ft | 15 kts | 73° |
| 2026-05-06 17:56 | 25.24744 | 55.38006 | 33 ft | 13 kts | 29° |
| 2026-05-06 17:56 | 25.24827 | 55.37985 | 33 ft | 14 kts | 308° |
| 2026-05-06 17:56 | 25.24887 | 55.37878 | 34 ft | 28 kts | 302° |
| 2026-05-06 17:56 | 25.25130 | 55.37442 | 35 ft | 102 kts | 302° |
| 2026-05-06 17:57 | 25.25649 | 55.36505 | 34 ft | 179 kts | 302° |
| 2026-05-06 17:57 | 25.26376 | 55.35203 | 574 ft | 210 kts | 303° |
| 2026-05-06 17:57 | 25.27196 | 55.33797 | 1446 ft | 224 kts | 303° |
| 2026-05-06 17:57 | 25.28035 | 55.32338 | 2407 ft | 220 kts | 301° |
| 2026-05-06 17:58 | 25.28816 | 55.30893 | 3160 ft | 218 kts | 297° |
| 2026-05-06 17:58 | 25.29223 | 55.29259 | 3654 ft | 228 kts | 269° |
| 2026-05-06 17:58 | 25.28815 | 55.27521 | 4078 ft | 240 kts | 245° |
| 2026-05-06 17:58 | 25.28087 | 55.25831 | 4787 ft | 244 kts | 242° |
| 2026-05-06 17:59 | 25.27345 | 55.24150 | 5632 ft | 242 kts | 242° |
| 2026-05-06 17:59 | 25.26657 | 55.22439 | 6385 ft | 249 kts | 252° |
| 2026-05-06 17:59 | 25.26378 | 55.20480 | 6859 ft | 267 kts | 264° |
| 2026-05-06 17:59 | 25.26271 | 55.18363 | 7311 ft | 284 kts | 266° |
| 2026-05-06 18:00 | 25.26170 | 55.16148 | 7949 ft | 291 kts | 266° |
| 2026-05-06 18:00 | 25.26043 | 55.13894 | 8695 ft | 295 kts | 266° |
| 2026-05-06 18:00 | 25.25891 | 55.11617 | 9472 ft | 299 kts | 266° |
| 2026-05-06 18:00 | 25.25724 | 55.09308 | 10190 ft | 303 kts | 266° |
| 2026-05-06 18:01 | 25.25546 | 55.06945 | 10682 ft | 316 kts | 266° |
| 2026-05-06 18:01 | 25.25355 | 55.04456 | 11018 ft | 333 kts | 266° |
| 2026-05-06 18:01 | 25.25150 | 55.01838 | 11404 ft | 348 kts | 266° |
| 2026-05-06 18:01 | 25.24933 | 54.99101 | 11807 ft | 366 kts | 266° |
| 2026-05-06 18:02 | 25.24703 | 54.96223 | 12164 ft | 385 kts | 266° |
| 2026-05-06 18:02 | 25.24459 | 54.93208 | 12522 ft | 402 kts | 266° |
| 2026-05-06 18:02 | 25.24204 | 54.90086 | 13117 ft | 411 kts | 266° |
| 2026-05-06 18:02 | 25.23943 | 54.86919 | 13849 ft | 416 kts | 267° |
| 2026-05-06 18:03 | 25.23683 | 54.83718 | 14557 ft | 419 kts | 266° |
| 2026-05-06 18:03 | 25.23423 | 54.80499 | 15330 ft | 421 kts | 266° |
| 2026-05-06 18:03 | 25.23158 | 54.77262 | 16110 ft | 423 kts | 265° |
| 2026-05-06 18:03 | 25.22891 | 54.74012 | 16884 ft | 426 kts | 265° |
| 2026-05-06 18:04 | 25.22619 | 54.70738 | 17612 ft | 429 kts | 265° |
| 2026-05-06 18:04 | 25.22344 | 54.67441 | 18333 ft | 432 kts | 264° |
| 2026-05-06 18:04 | 25.22063 | 54.64132 | 19011 ft | 433 kts | 264° |
| 2026-05-06 18:04 | 25.21780 | 54.60805 | 19680 ft | 435 kts | 265° |
| 2026-05-06 18:05 | 25.21506 | 54.57467 | 20361 ft | 437 kts | 266° |
| 2026-05-06 18:05 | 25.21490 | 54.54102 | 21007 ft | 439 kts | 273° |
| 2026-05-06 18:05 | 25.21840 | 54.50731 | 21630 ft | 443 kts | 280° |
| 2026-05-06 18:05 | 25.22534 | 54.47405 | 22251 ft | 446 kts | 285° |
| 2026-05-06 18:06 | 25.23359 | 54.44093 | 22859 ft | 449 kts | 285° |
| 2026-05-06 18:06 | 25.23942 | 54.40691 | 23410 ft | 453 kts | 275° |
| 2026-05-06 18:06 | 25.24062 | 54.37200 | 23938 ft | 455 kts | 270° |
| 2026-05-06 18:06 | 25.24067 | 54.33697 | 24491 ft | 456 kts | 270° |
| 2026-05-06 18:07 | 25.24070 | 54.30183 | 25052 ft | 458 kts | 270° |
| 2026-05-06 18:07 | 25.24094 | 54.26653 | 25541 ft | 459 kts | 270° |
| 2026-05-06 18:07 | 25.24139 | 54.23127 | 25774 ft | 459 kts | 270° |
| 2026-05-06 18:07 | 25.24199 | 54.19598 | 25784 ft | 458 kts | 270° |
| 2026-05-06 18:08 | 25.24268 | 54.16076 | 25790 ft | 458 kts | 270° |
| 2026-05-06 18:08 | 25.24342 | 54.12558 | 25791 ft | 458 kts | 270° |
| 2026-05-06 18:08 | 25.24418 | 54.09043 | 25792 ft | 458 kts | 270° |
| 2026-05-06 18:08 | 25.24497 | 54.05519 | 25793 ft | 458 kts | 271° |
| 2026-05-06 18:09 | 25.24575 | 54.02000 | 25792 ft | 458 kts | 271° |
| 2026-05-06 18:09 | 25.24654 | 53.98463 | 25784 ft | 458 kts | 270° |
| 2026-05-06 18:09 | 25.24732 | 53.94991 | 25794 ft | 458 kts | 270° |
| 2026-05-06 18:09 | 25.24810 | 53.91421 | 25797 ft | 458 kts | 270° |
| 2026-05-06 18:10 | 25.24888 | 53.87900 | 25801 ft | 458 kts | 270° |
| 2026-05-06 18:10 | 25.24840 | 53.84382 | 25777 ft | 457 kts | 263° |
| 2026-05-06 18:10 | 25.24232 | 53.80929 | 25800 ft | 457 kts | 256° |
| 2026-05-06 18:10 | 25.23442 | 53.77523 | 25802 ft | 457 kts | 255° |
| 2026-05-06 18:11 | 25.22627 | 53.74122 | 25806 ft | 457 kts | 255° |
| 2026-05-06 18:11 | 25.21838 | 53.70762 | 25798 ft | 457 kts | 255° |
| 2026-05-06 18:11 | 25.21047 | 53.67311 | 25797 ft | 457 kts | 256° |
| 2026-05-06 18:11 | 25.20295 | 53.63955 | 25801 ft | 457 kts | 256° |
| 2026-05-06 18:12 | 25.19537 | 53.60533 | 25793 ft | 457 kts | 256° |
| 2026-05-06 18:12 | 25.18786 | 53.57116 | 25800 ft | 457 kts | 256° |
| 2026-05-06 18:12 | 25.18039 | 53.53703 | 25799 ft | 457 kts | 256° |
| 2026-05-06 18:12 | 25.17293 | 53.50284 | 25804 ft | 457 kts | 256° |
| 2026-05-06 18:13 | 25.16738 | 53.46831 | 25793 ft | 457 kts | 263° |
| 2026-05-06 18:13 | 25.16471 | 53.43328 | 25790 ft | 457 kts | 265° |
| 2026-05-06 18:13 | 25.16270 | 53.39820 | 25792 ft | 457 kts | 266° |
| 2026-05-06 18:13 | 25.16066 | 53.36312 | 25792 ft | 457 kts | 266° |
| 2026-05-06 18:14 | 25.15844 | 53.32806 | 25806 ft | 457 kts | 265° |
| 2026-05-06 18:14 | 25.15607 | 53.29303 | 25795 ft | 457 kts | 265° |
| 2026-05-06 18:14 | 25.15356 | 53.25774 | 25802 ft | 457 kts | 265° |
| 2026-05-06 18:14 | 25.15100 | 53.22272 | 25805 ft | 457 kts | 265° |
| 2026-05-06 18:15 | 25.14839 | 53.18783 | 25747 ft | 453 kts | 265° |
| 2026-05-06 18:15 | 25.14578 | 53.15331 | 25224 ft | 449 kts | 265° |
| 2026-05-06 18:15 | 25.14314 | 53.11891 | 24451 ft | 450 kts | 265° |
| 2026-05-06 18:15 | 25.14048 | 53.08442 | 23826 ft | 449 kts | 265° |
| 2026-05-06 18:16 | 25.13782 | 53.05017 | 23185 ft | 447 kts | 265° |
| 2026-05-06 18:16 | 25.13519 | 53.01604 | 22479 ft | 444 kts | 265° |
| 2026-05-06 18:16 | 25.13257 | 52.98221 | 21835 ft | 441 kts | 265° |
| 2026-05-06 18:16 | 25.12997 | 52.94861 | 21208 ft | 437 kts | 265° |
| 2026-05-06 18:17 | 25.12737 | 52.91530 | 20603 ft | 433 kts | 265° |
| 2026-05-06 18:17 | 25.12479 | 52.88226 | 20024 ft | 429 kts | 265° |
| 2026-05-06 18:17 | 25.12220 | 52.84947 | 19378 ft | 428 kts | 264° |
| 2026-05-06 18:17 | 25.11958 | 52.81677 | 18729 ft | 427 kts | 264° |
| 2026-05-06 18:18 | 25.11699 | 52.78417 | 18124 ft | 425 kts | 264° |
| 2026-05-06 18:18 | 25.11433 | 52.75160 | 17449 ft | 423 kts | 264° |
| 2026-05-06 18:18 | 25.11167 | 52.71932 | 16797 ft | 421 kts | 265° |
| 2026-05-06 18:18 | 25.10907 | 52.68724 | 16181 ft | 418 kts | 265° |
| 2026-05-06 18:19 | 25.10649 | 52.65535 | 15577 ft | 415 kts | 266° |
| 2026-05-06 18:19 | 25.10398 | 52.62405 | 14987 ft | 413 kts | 266° |
| 2026-05-06 18:19 | 25.10149 | 52.59250 | 14390 ft | 412 kts | 266° |
| 2026-05-06 18:19 | 25.09898 | 52.56112 | 13863 ft | 408 kts | 266° |
| 2026-05-06 18:20 | 25.09646 | 52.52996 | 13314 ft | 405 kts | 267° |
| 2026-05-06 18:20 | 25.09399 | 52.49915 | 12808 ft | 400 kts | 266° |
| 2026-05-06 18:20 | 25.09153 | 52.46870 | 12337 ft | 395 kts | 266° |
| 2026-05-06 18:20 | 25.08908 | 52.43870 | 11878 ft | 390 kts | 266° |
| 2026-05-06 18:21 | 25.08666 | 52.40901 | 11429 ft | 386 kts | 266° |
| 2026-05-06 18:21 | 25.08425 | 52.37964 | 10983 ft | 382 kts | 266° |
| 2026-05-06 18:21 | 25.08189 | 52.35091 | 10810 ft | 368 kts | 266° |
| 2026-05-06 18:21 | 25.07960 | 52.32330 | 10584 ft | 352 kts | 266° |
| 2026-05-06 18:22 | 25.07744 | 52.29744 | 10462 ft | 324 kts | 267° |
| 2026-05-06 18:22 | 25.07542 | 52.27338 | 10425 ft | 307 kts | 266° |
| 2026-05-06 18:22 | 25.07351 | 52.25029 | 10303 ft | 297 kts | 267° |
| 2026-05-06 18:22 | 25.07162 | 52.22791 | 10201 ft | 290 kts | 267° |
| 2026-05-06 18:23 | 25.06980 | 52.20591 | 10109 ft | 286 kts | 267° |
| 2026-05-06 18:23 | 25.06798 | 52.18415 | 10023 ft | 284 kts | 268° |
| 2026-05-06 18:23 | 25.06619 | 52.16240 | 9779 ft | 285 kts | 267° |
| 2026-05-06 18:23 | 25.06442 | 52.14061 | 9454 ft | 285 kts | 267° |
| 2026-05-06 18:24 | 25.06260 | 52.11883 | 9134 ft | 285 kts | 267° |
| 2026-05-06 18:24 | 25.06080 | 52.09707 | 8829 ft | 284 kts | 267° |
| 2026-05-06 18:24 | 25.05896 | 52.07539 | 8517 ft | 283 kts | 266° |
| 2026-05-06 18:24 | 25.05710 | 52.05375 | 8213 ft | 283 kts | 266° |
| 2026-05-06 18:25 | 25.05528 | 52.03198 | 7924 ft | 282 kts | 267° |
| 2026-05-06 18:25 | 25.05343 | 52.01038 | 7622 ft | 283 kts | 267° |
| 2026-05-06 18:25 | 25.05162 | 51.98877 | 7318 ft | 283 kts | 266° |
| 2026-05-06 18:25 | 25.04983 | 51.96715 | 7030 ft | 283 kts | 266° |
| 2026-05-06 18:26 | 25.04798 | 51.94553 | 6751 ft | 282 kts | 266° |
| 2026-05-06 18:26 | 25.04618 | 51.92402 | 6484 ft | 281 kts | 265° |
| 2026-05-06 18:26 | 25.04431 | 51.90257 | 6191 ft | 280 kts | 266° |
| 2026-05-06 18:26 | 25.04242 | 51.88118 | 5892 ft | 280 kts | 266° |
| 2026-05-06 18:27 | 25.04062 | 51.85982 | 5599 ft | 278 kts | 266° |
| 2026-05-06 18:27 | 25.03880 | 51.83855 | 5313 ft | 277 kts | 266° |
| 2026-05-06 18:27 | 25.03699 | 51.81737 | 5032 ft | 277 kts | 267° |
| 2026-05-06 18:27 | 25.03523 | 51.79621 | 4747 ft | 276 kts | 266° |
| 2026-05-06 18:28 | 25.03340 | 51.77498 | 4458 ft | 276 kts | 265° |
| 2026-05-06 18:28 | 25.03159 | 51.75401 | 4252 ft | 270 kts | 265° |
| 2026-05-06 18:28 | 25.02986 | 51.73401 | 4117 ft | 261 kts | 268° |
| 2026-05-06 18:28 | 25.03283 | 51.71505 | 4001 ft | 247 kts | 300° |
| 2026-05-06 18:29 | 25.04383 | 51.70064 | 3997 ft | 243 kts | 327° |
| 2026-05-06 18:29 | 25.05833 | 51.69170 | 3874 ft | 241 kts | 339° |
| 2026-05-06 18:29 | 25.07358 | 51.68515 | 3604 ft | 229 kts | 342° |
| 2026-05-06 18:29 | 25.08823 | 51.67922 | 3336 ft | 217 kts | 342° |
| 2026-05-06 18:30 | 25.10187 | 51.67345 | 3096 ft | 204 kts | 341° |
| 2026-05-06 18:30 | 25.11470 | 51.66782 | 2844 ft | 193 kts | 342° |
| 2026-05-06 18:30 | 25.12692 | 51.66244 | 2594 ft | 185 kts | 342° |
| 2026-05-06 18:30 | 25.13866 | 51.65726 | 2340 ft | 178 kts | 341° |
| 2026-05-06 18:31 | 25.14994 | 51.65223 | 2099 ft | 169 kts | 340° |
| 2026-05-06 18:31 | 25.16052 | 51.64751 | 1898 ft | 159 kts | 339° |
| 2026-05-06 18:31 | 25.17061 | 51.64301 | 1719 ft | 156 kts | 339° |
| 2026-05-06 18:31 | 25.18063 | 51.63855 | 1549 ft | 155 kts | 340° |
| 2026-05-06 18:32 | 25.19059 | 51.63406 | 1339 ft | 154 kts | 339° |
| 2026-05-06 18:32 | 25.20057 | 51.62971 | 1050 ft | 154 kts | 339° |
| 2026-05-06 18:32 | 25.21051 | 51.62546 | 774 ft | 153 kts | 339° |
| 2026-05-06 18:32 | 25.22027 | 51.62072 | 656 ft | 153 kts | 339° |
| 2026-05-06 18:33 | 25.23020 | 51.61651 | 510 ft | 153 kts | 339° |
| 2026-05-06 18:33 | 25.24017 | 51.61206 | 293 ft | 151 kts | 340° |
| 2026-05-06 18:33 | 25.24979 | 51.60789 | 128 ft | 146 kts | 340° |
| 2026-05-06 18:33 | 25.25898 | 51.60381 | 37 ft | 134 kts | 339° |
| 2026-05-06 18:34 | 25.26582 | 51.60086 | 34 ft | 85 kts | 339° |
| 2026-05-06 18:34 | 25.27100 | 51.59862 | 34 ft | 68 kts | 340° |
| 2026-05-06 18:34 | 25.27390 | 51.59836 | 36 ft | 20 kts | 23° |
| 2026-05-06 18:34 | 25.27416 | 51.59903 | 37 ft | 10 kts | 138° |
| 2026-05-06 18:35 | 25.27350 | 51.59946 | 37 ft | 13 kts | 157° |
| 2026-05-06 18:35 | 25.27256 | 51.59988 | 37 ft | 17 kts | 158° |
| 2026-05-06 18:35 | 25.27179 | 51.60023 | 37 ft | 19 kts | 158° |
| 2026-05-06 18:35 | 25.26999 | 51.60102 | 37 ft | 12 kts | 158° |
| 2026-05-06 18:36 | 25.26940 | 51.60129 | 37 ft | 15 kts | 158° |
| 2026-05-06 18:36 | 25.26828 | 51.60178 | 36 ft | 19 kts | 158° |
| 2026-05-06 18:36 | 25.26715 | 51.60227 | 36 ft | 17 kts | 158° |
| 2026-05-06 18:36 | 25.26594 | 51.60281 | 37 ft | 20 kts | 158° |
| 2026-05-06 18:37 | 25.26517 | 51.60382 | 38 ft | 19 kts | 65° |
| 2026-05-06 18:37 | 25.26561 | 51.60523 | 38 ft | 21 kts | 69° |
| 2026-05-06 18:37 | 25.26593 | 51.60690 | 39 ft | 23 kts | 86° |
| 2026-05-06 18:37 | 25.26517 | 51.60828 | 39 ft | 22 kts | 123° |
| 2026-05-06 18:38 | 25.26446 | 51.60956 | 39 ft | 16 kts | 52° |
| 2026-05-06 18:38 | 25.26556 | 51.60978 | 39 ft | 11 kts | 25° |
| 2026-05-06 18:38 | 25.26585 | 51.61020 | 39 ft | 3 kts | 65° |
| 2026-05-06 18:38 | 25.26591 | 51.61034 | 39 ft | 0 kts | 66° |